Nearby METAR Reports

 

EGKB - Biggin Hill, United Kingdom
Distance from station: S 5mi, 8km
Updated: 29/01/2015 20:20
NOT Current
Partly cloudy
Partly cloudy
 Wind from W
Wind: W 13 mph , 20 km/h
Temperature: 0°C
Wind Chill: -6°C
Dew Point: -2°C
Humidity: 87%
Barometer: 977 hPa
Clouds: Partly cloudy
Visibility: 6 miles , 10 km
Cloud details: Partly cloudy 1067 m
2015/01/29 20:20 EGKB 292020Z 27011KT 9999 SCT035 00/M02 Q0977
EGLC - London City Airp, United Kingdom
Distance from station: NNE 8mi, 13km
Updated: 30/01/2015 04:20
Overcast
Overcast
 Wind from WSW
Wind: WSW 9 mph , 15 km/h
Temperature: 4°C
Wind Chill: 1°C
Dew Point: 0°C
Humidity: 75%
Barometer: 975 hPa
Clouds: Overcast
Visibility: 6 miles , 10 km
Cloud details: Overcast 1372 m
2015/01/30 04:20 EGLC 300420Z AUTO 25008KT 9999 OVC045/// 04/M00 Q0975
 
EGKK - London/Gatwick A, United Kingdom
Distance from station: SSW 19mi, 31km
Updated: 30/01/2015 04:20
Light rain, Showers, Mostly cloudy
Light rain, Showers, Mostly cloudy
 Wind from SW
Wind: SW 10 mph , 17 km/h
Temperature: 3°C
Wind Chill: -1°C
Dew Point: 0°C
Humidity: 81%
Barometer: 976 hPa
Summary: Light rain, Showers
Clouds: Mostly cloudy
Visibility: 6 miles , 9 km
Cloud details: Few Clouds 579 m
Partly cloudy 884 m
Mostly cloudy 1128 m
2015/01/30 04:20 EGKK 300420Z 23009KT 9000 -SHRA FEW019TCU SCT029 BKN037 03/M00 Q0976
EGLL - London/Heathrow, United Kingdom
Distance from station: WNW 21mi, 33km
Updated: 30/01/2015 04:20
Light rain, Partly cloudy
Light rain, Partly cloudy
 Wind from SW
Wind: SW 9 mph , 15 km/h
Temperature: 3°C
Wind Chill: -1°C
Dew Point: 1°C
Humidity: 87%
Barometer: 975 hPa
Summary: Light rain
Clouds: Partly cloudy
Visibility: 6 miles , 9 km
Cloud details: Partly cloudy 518 m
Partly cloudy 701 m
2015/01/30 04:20 EGLL 300420Z 22008KT 9000 -RA SCT017 SCT023 03/01 Q0975